Time;durP1;ratioP1;P1;durP2;ratioP2;P2;SDS_P1;SDS_P2;PMS_P1;PMS_P2;Temp;Humidity;BMP_temperature;BMP_pressure;BME280_temperature;BME280_humidity;BME280_pressure;Samples;Min_cycle;Max_cycle;Signal;HPM_P1;HPM_P2
2023/12/28 00:01:08;;;;;;;15.40;9.73;;;;;;;4.90;58.48;96024.91;5105195;28;20032;-79
2023/12/28 00:03:33;;;;;;;13.98;10.43;;;;;;;4.85;58.44;96032.63;5105914;28;20064;-78
2023/12/28 00:05:59;;;;;;;17.60;9.88;;;;;;;4.82;58.35;96036.91;5107305;28;20027;-79
2023/12/28 00:08:24;;;;;;;17.23;9.93;;;;;;;4.86;58.12;96032.25;5109311;28;20058;-79
2023/12/28 00:10:50;;;;;;;16.40;10.15;;;;;;;4.81;58.45;96038.03;5109232;28;20462;-79
2023/12/28 00:13:16;;;;;;;19.85;11.10;;;;;;;4.66;58.37;96031.66;5108761;28;20604;-79
2023/12/28 00:15:41;;;;;;;18.17;10.30;;;;;;;4.74;58.26;96038.72;5108667;28;20134;-79
2023/12/28 00:18:06;;;;;;;18.10;11.32;;;;;;;4.67;58.41;96046.06;5108550;28;20032;-79
2023/12/28 00:20:32;;;;;;;18.30;10.70;;;;;;;4.64;58.25;96039.38;5108946;28;20040;-78
2023/12/28 00:22:58;;;;;;;16.58;10.40;;;;;;;4.62;58.76;96046.38;5108724;28;20023;-79
2023/12/28 00:25:23;;;;;;;20.15;12.07;;;;;;;4.58;58.17;96040.09;5109180;28;20555;-79
2023/12/28 00:27:49;;;;;;;18.27;11.50;;;;;;;4.58;58.06;96049.03;5108739;28;20032;-79
2023/12/28 00:30:16;;;;;;;19.02;11.63;;;;;;;4.53;57.88;96047.47;5109201;28;20051;-79
2023/12/28 00:32:44;;;;;;;17.75;11.10;;;;;;;4.49;58.10;96051.28;5108887;28;20468;-79
2023/12/28 00:35:09;;;;;;;18.48;12.07;;;;;;;4.45;58.19;96045.78;5108391;27;20106;-78
2023/12/28 00:37:35;;;;;;;17.50;11.43;;;;;;;4.40;58.40;96054.28;5108670;28;20635;-78
2023/12/28 00:40:00;;;;;;;17.17;12.38;;;;;;;4.39;58.43;96054.66;5108047;28;20043;-80
2023/12/28 00:42:26;;;;;;;17.75;11.57;;;;;;;4.36;58.46;96058.91;5107510;28;20111;-79
2023/12/28 00:44:52;;;;;;;18.67;12.23;;;;;;;4.31;58.70;96055.72;5108324;28;20157;-79
2023/12/28 00:47:18;;;;;;;19.00;12.32;;;;;;;4.32;58.74;96057.28;5108924;28;20020;-78
2023/12/28 00:49:43;;;;;;;23.10;12.15;;;;;;;4.21;58.87;96065.31;5108157;28;20128;-79
2023/12/28 00:52:08;;;;;;;20.65;12.45;;;;;;;4.16;58.86;96069.13;5106859;28;20043;-79
2023/12/28 00:54:36;;;;;;;20.25;12.07;;;;;;;4.21;59.00;96065.31;5108343;28;20038;-79
2023/12/28 00:57:02;;;;;;;24.13;13.38;;;;;;;4.12;59.63;96045.72;5106799;28;20028;-79
2023/12/28 00:59:27;;;;;;;20.13;12.32;;;;;;;4.19;59.39;96075.78;5108216;28;20024;-78
2023/12/28 01:01:53;;;;;;;24.80;13.82;;;;;;;4.15;58.90;96069.50;5107716;28;20410;-78
2023/12/28 01:04:18;;;;;;;21.92;13.02;;;;;;;4.08;58.98;96063.97;5108707;28;20034;-79
2023/12/28 01:06:44;;;;;;;18.75;12.45;;;;;;;4.10;59.41;96077.97;5107726;28;20042;-79
2023/12/28 01:09:09;;;;;;;19.58;12.27;;;;;;;4.09;61.17;96079.13;5108312;28;20034;-79
2023/12/28 01:11:34;;;;;;;22.83;13.15;;;;;;;4.04;59.93;96077.50;5107943;28;20024;-78
2023/12/28 01:14:00;;;;;;;22.42;13.43;;;;;;;4.14;58.80;96074.16;5107087;28;20378;-79
2023/12/28 01:16:25;;;;;;;22.00;12.93;;;;;;;4.09;58.77;96081.88;5107724;28;20024;-79
2023/12/28 01:18:51;;;;;;;24.08;13.32;;;;;;;4.04;59.05;96076.72;5107517;28;20069;-79
2023/12/28 01:21:17;;;;;;;21.42;13.18;;;;;;;3.99;59.16;96077.81;5108304;27;20438;-79
2023/12/28 01:23:42;;;;;;;22.38;13.52;;;;;;;3.90;59.44;96067.22;5107179;28;20028;-79
2023/12/28 01:26:13;;;;;;;22.23;13.32;;;;;;;3.89;59.45;96062.91;5106886;28;20023;-79
2023/12/28 01:28:38;;;;;;;17.67;13.15;;;;;;;3.93;59.25;96073.84;5107605;28;20038;-79
2023/12/28 01:31:07;;;;;;;25.00;14.25;;;;;;;3.95;59.11;96075.03;5105901;28;20020;-78
2023/12/28 01:33:32;;;;;;;23.98;13.90;;;;;;;3.95;59.22;96072.31;5107501;28;20039;-78
2023/12/28 01:35:58;;;;;;;20.73;12.85;;;;;;;3.95;59.22;96072.31;5107124;28;20023;-79
2023/12/28 01:38:23;;;;;;;21.73;13.55;;;;;;;3.87;59.56;96075.31;5107915;28;20107;-79
2023/12/28 01:40:48;;;;;;;22.67;13.35;;;;;;;3.87;59.40;96078.03;5106957;28;20142;-78
2023/12/28 01:43:14;;;;;;;20.20;14.07;;;;;;;3.80;59.52;96073.28;5107989;28;20036;-79
2023/12/28 01:45:39;;;;;;;19.98;13.60;;;;;;;3.80;59.52;96062.41;5107020;28;20390;-79
2023/12/28 01:48:05;;;;;;;24.98;13.70;;;;;;;3.78;59.89;96067.41;5107246;28;20054;-78
2023/12/28 01:50:31;;;;;;;21.27;14.32;;;;;;;3.82;59.81;96070.19;5107362;28;20042;-78
2023/12/28 01:52:58;;;;;;;20.98;13.57;;;;;;;3.75;59.81;96065.41;5106964;28;20517;-78
2023/12/28 01:55:25;;;;;;;19.10;13.25;;;;;;;3.68;59.58;96059.88;5106089;28;20127;-79
2023/12/28 01:57:50;;;;;;;23.92;13.90;;;;;;;3.70;59.62;96066.50;5105284;28;20494;-79
2023/12/28 02:00:16;;;;;;;22.23;12.93;;;;;;;3.68;59.61;96059.88;5107384;28;20063;-79
2023/12/28 02:02:42;;;;;;;23.27;13.55;;;;;;;3.64;59.57;96067.97;5105184;28;20024;-78
2023/12/28 02:05:08;;;;;;;20.05;13.35;;;;;;;3.57;59.83;96070.59;5107556;28;20031;-78
2023/12/28 02:07:36;;;;;;;22.33;12.65;;;;;;;3.59;59.56;96065.56;5105427;28;20054;-79
2023/12/28 02:10:01;;;;;;;17.50;13.18;;;;;;;3.55;59.66;96067.41;5106404;28;20144;-78
2023/12/28 02:12:27;;;;;;;20.05;13.25;;;;;;;3.54;59.84;96063.13;5106945;28;20068;-78
2023/12/28 02:14:52;;;;;;;22.65;15.45;;;;;;;3.53;60.45;96066.22;5106113;27;20537;-78
2023/12/28 02:17:30;;;;;;;24.77;15.27;;;;;;;3.50;60.39;96058.78;5107349;28;20489;-79
2023/12/28 02:19:56;;;;;;;23.10;14.85;;;;;;;3.54;60.35;96063.13;5105081;28;20023;-79
2023/12/28 02:22:25;;;;;;;25.30;15.23;;;;;;;3.51;60.87;96061.16;5105442;28;20024;-78
2023/12/28 02:25:06;;;;;;;24.38;15.52;;;;;;;3.50;61.38;96058.78;5105351;28;20024;-78
2023/12/28 02:27:42;;;;;;;26.13;16.60;;;;;;;3.46;61.69;96062.25;5105770;28;20023;-79
2023/12/28 02:30:09;;;;;;;28.45;16.60;;;;;;;3.44;61.92;96059.13;5105550;28;20573;-79
2023/12/28 02:32:54;;;;;;;29.25;17.10;;;;;;;3.46;62.34;96066.91;5105836;28;20489;-79
2023/12/28 02:35:31;;;;;;;26.70;17.30;;;;;;;3.42;62.53;96072.28;5105186;28;20035;-80
2023/12/28 02:38:00;;;;;;;33.33;17.48;;;;;;;3.37;63.07;96069.84;5106576;28;20114;-79
2023/12/28 02:40:26;;;;;;;28.15;17.40;;;;;;;3.35;63.08;96066.72;5104356;28;20099;-79
2023/12/28 02:42:52;;;;;;;25.88;17.58;;;;;;;3.39;63.09;96061.34;5105171;28;20112;-79
2023/12/28 02:45:18;;;;;;;30.73;16.70;;;;;;;3.36;63.09;96057.41;5104443;28;20114;-79
2023/12/28 02:47:44;;;;;;;30.23;18.27;;;;;;;3.31;63.13;96056.94;5106460;28;20032;-78
2023/12/28 02:50:09;;;;;;;30.38;18.00;;;;;;;3.33;63.10;96058.16;5106120;28;20119;-79
2023/12/28 02:52:35;;;;;;;32.35;16.58;;;;;;;3.33;63.06;96063.59;5106229;28;20412;-80
2023/12/28 02:55:00;;;;;;;28.92;16.65;;;;;;;3.31;62.90;96068.59;5106365;28;20505;-78
2023/12/28 02:57:25;;;;;;;27.92;17.00;;;;;;;3.34;62.79;96053.50;5105629;28;20032;-79
2023/12/28 02:59:51;;;;;;;30.60;16.40;;;;;;;3.32;62.69;96059.28;5106065;28;20027;-78
2023/12/28 03:02:16;;;;;;;29.02;17.20;;;;;;;3.29;62.84;96054.56;5104192;28;20024;-79
2023/12/28 03:04:41;;;;;;;28.27;16.60;;;;;;;3.28;63.05;96049.50;5106207;28;20063;-79
2023/12/28 03:07:08;;;;;;;30.10;16.40;;;;;;;3.30;62.70;96041.78;5105638;28;20073;-79
2023/12/28 03:09:34;;;;;;;30.58;16.13;;;;;;;3.27;62.68;96040.56;5106131;28;20034;-80
2023/12/28 03:12:00;;;;;;;27.52;16.08;;;;;;;3.29;62.81;96038.28;5105933;28;20506;-80
2023/12/28 03:14:25;;;;;;;29.25;16.17;;;;;;;3.26;62.83;96040.91;5105509;28;20105;-78
2023/12/28 03:16:51;;;;;;;29.25;17.00;;;;;;;3.24;62.60;96038.56;5105894;28;20016;-79
2023/12/28 03:19:17;;;;;;;30.88;17.63;;;;;;;3.24;62.44;96033.13;5104220;28;20030;-79
2023/12/28 03:21:43;;;;;;;27.05;16.67;;;;;;;3.18;62.45;96042.75;5105749;28;20114;-79
2023/12/28 03:24:08;;;;;;;28.05;16.15;;;;;;;3.17;62.66;96041.19;5105355;28;20198;-78
2023/12/28 03:26:40;;;;;;;28.13;15.02;;;;;;;3.15;62.65;96036.09;5106041;28;20087;-79
2023/12/28 03:29:07;;;;;;;26.60;16.50;;;;;;;3.13;62.44;96032.16;5105839;28;20028;-79
2023/12/28 03:31:33;;;;;;;25.02;16.08;;;;;;;3.13;62.36;96046.53;5105615;28;20394;-78
2023/12/28 03:33:59;;;;;;;26.48;14.05;;;;;;;3.15;62.03;96055.13;5105797;28;20101;-79
2023/12/28 03:36:24;;;;;;;22.65;13.77;;;;;;;3.09;61.62;96053.03;5105463;28;20039;-78
2023/12/28 03:38:50;;;;;;;25.70;14.10;;;;;;;3.10;61.51;96055.44;5105851;28;20031;-79
2023/12/28 03:41:18;;;;;;;25.63;16.25;;;;;;;3.04;61.76;96051.44;5108163;28;20542;-78
2023/12/28 03:43:45;;;;;;;25.08;16.48;;;;;;;3.01;61.91;96056.78;5110021;28;20286;-79
2023/12/28 03:46:10;;;;;;;26.80;14.88;;;;;;;3.02;61.89;96058.34;5111483;28;20690;-80
2023/12/28 03:48:36;;;;;;;29.95;16.23;;;;;;;3.06;61.86;96060.00;5111801;28;20099;-81
2023/12/28 03:51:02;;;;;;;26.83;15.95;;;;;;;2.94;62.28;96057.47;5112207;28;20027;-80
2023/12/28 03:53:28;;;;;;;30.30;16.10;;;;;;;3.01;62.16;96064.94;5112942;28;20020;-80
2023/12/28 03:55:53;;;;;;;28.40;16.38;;;;;;;3.03;62.06;96066.13;5114237;27;20039;-79
2023/12/28 03:58:19;;;;;;;26.73;15.75;;;;;;;3.02;62.50;96066.50;5111296;28;20409;-80
2023/12/28 04:00:44;;;;;;;29.08;16.33;;;;;;;3.05;64.14;96069.31;5110060;28;20027;-80
2023/12/28 04:03:09;;;;;;;26.15;16.27;;;;;;;3.01;64.35;96068.44;5110109;27;20031;-79
2023/12/28 04:05:35;;;;;;;26.35;12.50;;;;;;;2.96;63.70;96065.25;5108477;28;20031;-80
2023/12/28 04:08:01;;;;;;;19.30;13.00;;;;;;;2.93;64.16;96074.91;5109496;28;20516;-80
2023/12/28 04:10:31;;;;;;;20.58;12.80;;;;;;;2.90;64.82;96070.19;5109307;28;20072;-80
2023/12/28 04:12:57;;;;;;;19.90;12.25;;;;;;;2.73;65.33;96065.97;5109363;28;20442;-80
2023/12/28 04:15:23;;;;;;;20.67;12.30;;;;;;;2.60;65.88;96059.13;5108710;28;20067;-80
2023/12/28 04:17:49;;;;;;;19.27;12.20;;;;;;;2.44;66.47;96072.78;5109141;28;20535;-80
2023/12/28 04:20:14;;;;;;;20.20;11.43;;;;;;;2.33;66.65;96075.25;5108500;28;20028;-79
2023/12/28 04:22:40;;;;;;;18.73;11.88;;;;;;;2.17;67.64;96073.75;5109171;28;20101;-78
2023/12/28 04:25:06;;;;;;;24.75;12.80;;;;;;;2.02;68.53;96072.66;5108730;27;20038;-79
2023/12/28 04:27:32;;;;;;;18.33;12.05;;;;;;;2.08;68.49;96066.59;5109115;28;20034;-79
2023/12/28 04:29:57;;;;;;;21.67;11.55;;;;;;;2.19;67.74;96071.47;5109203;28;20482;-79
2023/12/28 04:32:23;;;;;;;17.70;11.88;;;;;;;2.31;67.28;96074.06;5108356;27;20019;-79
2023/12/28 04:34:49;;;;;;;17.77;11.73;;;;;;;2.39;67.02;96067.63;5108750;28;20103;-79
2023/12/28 04:37:15;;;;;;;17.70;11.73;;;;;;;2.43;66.92;96070.41;5108218;28;20102;-78
2023/12/28 04:39:40;;;;;;;18.45;12.85;;;;;;;2.48;66.60;96064.72;5108918;28;20355;-80
2023/12/28 04:42:05;;;;;;;18.73;11.55;;;;;;;2.53;66.19;96069.84;5108492;28;20170;-79
2023/12/28 04:44:31;;;;;;;16.58;11.55;;;;;;;2.55;65.91;96067.56;5107352;28;20417;-81
2023/12/28 04:46:56;;;;;;;20.50;12.52;;;;;;;2.59;65.59;96065.72;5108518;28;20028;-81
2023/12/28 04:49:22;;;;;;;20.02;11.85;;;;;;;2.60;65.06;96065.34;5108453;28;20024;-80
2023/12/28 04:51:47;;;;;;;19.05;12.15;;;;;;;2.70;64.95;96063.22;5106344;28;20036;-80
2023/12/28 04:54:12;;;;;;;22.23;14.43;;;;;;;2.72;64.92;96071.78;5107945;28;20066;-80
2023/12/28 04:56:38;;;;;;;18.92;12.43;;;;;;;2.72;64.73;96071.78;5108536;28;20028;-79
2023/12/28 04:59:03;;;;;;;20.63;12.50;;;;;;;2.74;64.75;96069.47;5107933;28;20486;-80
2023/12/28 05:01:31;;;;;;;18.85;11.80;;;;;;;2.77;64.49;96068.78;5108700;28;20046;-81
2023/12/28 05:03:57;;;;;;;19.80;13.48;;;;;;;2.75;64.14;96060.19;5107734;28;20563;-80
2023/12/28 05:06:22;;;;;;;20.75;13.38;;;;;;;2.76;64.11;96073.41;5108253;28;20135;-82
2023/12/28 05:08:47;;;;;;;18.88;11.75;;;;;;;2.74;64.11;96072.97;5108002;28;20110;-81
2023/12/28 05:11:13;;;;;;;22.33;12.70;;;;;;;2.76;63.66;96067.22;5107796;28;20044;-80
2023/12/28 05:13:38;;;;;;;18.55;12.55;;;;;;;2.74;63.34;96074.91;5107150;28;20076;-81
2023/12/28 05:16:04;;;;;;;23.65;13.30;;;;;;;2.70;63.02;96065.94;5107652;28;20105;-80
2023/12/28 05:18:29;;;;;;;23.38;12.93;;;;;;;2.69;62.71;96064.34;5108467;28;20505;-80
2023/12/28 05:20:55;;;;;;;24.45;13.38;;;;;;;2.65;62.45;96072.41;5107444;28;20084;-80
2023/12/28 05:23:20;;;;;;;20.17;13.43;;;;;;;2.61;62.33;96083.19;5108366;28;20034;-80
2023/12/28 05:25:46;;;;;;;21.45;13.80;;;;;;;2.58;62.48;96069.53;5107763;28;20020;-79
2023/12/28 05:28:11;;;;;;;23.55;14.40;;;;;;;2.53;62.31;96078.00;5107779;28;20088;-80
2023/12/28 05:30:37;;;;;;;22.42;13.65;;;;;;;2.40;62.49;96061.03;5106270;28;20494;-80
2023/12/28 05:33:03;;;;;;;22.00;14.25;;;;;;;2.38;62.34;96072.25;5107305;28;20039;-80
2023/12/28 05:35:28;;;;;;;19.60;13.80;;;;;;;2.40;62.30;96077.34;5108139;28;20615;-81
2023/12/28 05:37:54;;;;;;;23.38;14.68;;;;;;;2.40;62.33;96078.13;5107041;28;20080;-80
2023/12/28 05:40:19;;;;;;;22.58;14.63;;;;;;;2.34;62.44;96084.97;5108091;28;20173;-80
2023/12/28 05:42:44;;;;;;;25.00;14.20;;;;;;;2.36;62.13;96087.34;5107163;28;20028;-81
2023/12/28 05:45:10;;;;;;;21.08;14.60;;;;;;;2.34;61.77;96086.91;5107746;28;20055;-80
2023/12/28 05:47:36;;;;;;;17.65;12.40;;;;;;;2.36;61.70;96088.13;5107227;28;20027;-80
2023/12/28 05:50:03;;;;;;;21.73;13.38;;;;;;;2.32;61.65;96084.53;5105969;28;20024;-81
2023/12/28 05:52:28;;;;;;;22.65;14.20;;;;;;;2.28;61.88;96078.25;5107616;28;20027;-80
2023/12/28 05:54:56;;;;;;;20.10;13.13;;;;;;;2.28;61.92;96086.38;5105617;28;20088;-80
2023/12/28 05:57:21;;;;;;;19.60;13.23;;;;;;;2.29;62.21;96092.59;5107574;28;20028;-81
2023/12/28 05:59:47;;;;;;;21.00;12.93;;;;;;;2.27;62.27;96092.19;5107160;28;20049;-81
2023/12/28 06:02:12;;;;;;;21.05;15.07;;;;;;;2.27;62.12;96090.25;5107226;28;20038;-80
2023/12/28 06:04:38;;;;;;;20.35;15.68;;;;;;;2.23;62.24;96097.50;5106555;28;20160;-81
2023/12/28 06:07:04;;;;;;;24.02;15.25;;;;;;;2.28;62.23;96099.16;5106859;28;20028;-82
2023/12/28 06:09:29;;;;;;;21.90;14.60;;;;;;;2.24;62.48;96098.34;5107199;28;20532;-82
2023/12/28 06:11:55;;;;;;;23.35;14.68;;;;;;;2.26;62.46;96098.75;5105071;28;20061;-81
2023/12/28 06:14:20;;;;;;;22.27;15.07;;;;;;;2.33;62.34;96105.09;5106817;28;20047;-83
2023/12/28 06:16:45;;;;;;;28.20;17.17;;;;;;;2.31;62.33;96101.97;5106398;28;20024;-82
2023/12/28 06:19:12;;;;;;;24.77;15.23;;;;;;;2.10;62.34;96067.00;5107522;28;20438;-81
2023/12/28 06:21:38;;;;;;;21.25;15.15;;;;;;;2.35;62.36;96097.41;5106556;28;20035;-81
2023/12/28 06:24:03;;;;;;;24.92;14.85;;;;;;;2.35;62.52;96100.13;5107564;27;20024;-81
2023/12/28 06:26:29;;;;;;;27.42;15.95;;;;;;;2.28;62.87;96091.81;5105946;28;20047;-81
2023/12/28 06:28:54;;;;;;;23.95;14.65;;;;;;;2.34;62.48;96103.97;5106273;28;20027;-80
2023/12/28 06:31:19;;;;;;;22.63;14.82;;;;;;;2.35;62.52;96102.03;5106797;28;20063;-82
2023/12/28 06:33:45;;;;;;;24.23;15.73;;;;;;;2.33;62.75;96107.81;5106182;28;20050;-80
2023/12/28 06:36:12;;;;;;;24.40;15.75;;;;;;;2.34;62.60;96098.53;5106976;28;20024;-82
2023/12/28 06:38:37;;;;;;;27.27;15.50;;;;;;;2.31;62.63;96104.69;5106359;28;20069;-81
2023/12/28 06:41:10;;;;;;;21.45;15.07;;;;;;;2.37;62.55;96111.41;5106790;28;20024;-82
2023/12/28 06:43:35;;;;;;;27.20;17.38;;;;;;;2.29;62.58;96095.31;5106535;28;20081;-82
2023/12/28 06:46:01;;;;;;;24.40;16.23;;;;;;;2.45;62.50;96106.91;5106075;28;20036;-82
2023/12/28 06:48:26;;;;;;;24.20;17.90;;;;;;;2.42;62.55;96110.34;5106914;28;20028;-78
2023/12/28 06:50:51;;;;;;;27.33;17.63;;;;;;;2.44;62.47;96118.13;5105745;28;20498;-79
2023/12/28 06:53:17;;;;;;;30.38;19.48;;;;;;;2.48;62.59;96116.28;5106339;28;20068;-79
2023/12/28 06:55:43;;;;;;;29.15;20.63;;;;;;;2.46;62.79;96113.13;5105561;28;20069;-73
2023/12/28 06:58:08;;;;;;;32.08;20.60;;;;;;;2.56;62.61;96118.00;5106462;28;20023;-74
2023/12/28 07:00:33;;;;;;;35.85;22.20;;;;;;;2.58;62.62;96116.50;5105963;28;20474;-75
2023/12/28 07:02:59;;;;;;;32.90;21.17;;;;;;;2.61;62.84;96115.00;5105868;28;20032;-74
2023/12/28 07:05:24;;;;;;;37.08;24.15;;;;;;;2.68;62.91;96117.84;5104856;28;20019;-76
2023/12/28 07:07:49;;;;;;;42.38;25.45;;;;;;;2.65;63.00;96116.66;5105438;28;20031;-74
2023/12/28 07:10:16;;;;;;;34.60;23.35;;;;;;;2.80;62.66;96131.28;5106364;28;20031;-74
2023/12/28 07:12:41;;;;;;;41.22;25.95;;;;;;;2.83;62.67;96129.81;5103821;28;20019;-75
2023/12/28 07:15:09;;;;;;;44.70;27.33;;;;;;;2.81;62.95;96121.19;5108465;28;20066;-75
2023/12/28 07:17:35;;;;;;;40.65;27.08;;;;;;;2.88;62.72;96124.88;5109669;27;20039;-75
2023/12/28 07:20:00;;;;;;;48.63;29.30;;;;;;;2.96;62.58;96123.06;5110126;28;20023;-78
2023/12/28 07:22:25;;;;;;;45.42;27.35;;;;;;;3.02;62.57;96123.56;5108841;28;20024;-76
2023/12/28 07:24:51;;;;;;;50.72;29.45;;;;;;;3.01;62.80;96125.50;5108186;28;20026;-76
2023/12/28 07:27:16;;;;;;;48.80;28.73;;;;;;;3.15;62.46;96122.25;5110141;27;20028;-75
2023/12/28 07:29:42;;;;;;;50.17;29.40;;;;;;;3.22;62.25;96125.13;5108053;28;20024;-75
2023/12/28 07:32:09;;;;;;;43.78;30.33;;;;;;;3.32;62.00;96126.44;5110079;28;20112;-75
2023/12/28 07:34:35;;;;;;;45.95;29.98;;;;;;;3.36;61.86;96125.38;5109652;28;20053;-74
2023/12/28 07:37:00;;;;;;;47.85;29.65;;;;;;;3.46;61.72;96124.78;5110440;27;20039;-75
2023/12/28 07:39:25;;;;;;;37.03;25.30;;;;;;;3.64;61.56;96132.44;5109983;28;20078;-75
2023/12/28 07:41:51;;;;;;;39.58;24.92;;;;;;;3.91;61.06;96130.56;5108425;28;20076;-75
2023/12/28 07:44:17;;;;;;;37.42;24.63;;;;;;;4.19;60.53;96128.28;5109849;28;20030;-75
2023/12/28 07:46:42;;;;;;;38.83;25.20;;;;;;;4.44;59.92;96128.63;5109172;28;20470;-75
2023/12/28 07:49:07;;;;;;;36.70;23.98;;;;;;;4.70;59.34;96125.09;5109937;28;20102;-77
2023/12/28 07:51:33;;;;;;;45.70;26.50;;;;;;;5.09;58.38;96134.88;5107886;28;20024;-75
2023/12/28 07:53:58;;;;;;;40.47;25.40;;;;;;;5.55;57.35;96124.47;5109600;28;20027;-75
2023/12/28 07:56:23;;;;;;;37.35;24.50;;;;;;;6.11;55.74;96140.56;5109223;28;20102;-75
2023/12/28 07:58:49;;;;;;;36.88;25.23;;;;;;;7.18;53.63;96143.13;5108081;28;20023;-76
2023/12/28 08:01:14;;;;;;;36.55;26.05;;;;;;;8.89;49.05;96140.47;5109626;28;20115;-76
2023/12/28 08:03:40;;;;;;;42.63;27.42;;;;;;;10.30;45.02;96129.06;5109234;28;20035;-75
2023/12/28 08:06:05;;;;;;;40.30;26.48;;;;;;;11.44;42.35;96125.06;5109410;28;20024;-76
2023/12/28 08:08:31;;;;;;;40.63;26.25;;;;;;;12.57;39.41;96122.97;5109045;28;20160;-76
2023/12/28 08:10:57;;;;;;;38.00;27.92;;;;;;;13.33;38.26;96128.66;5109274;28;20400;-73
2023/12/28 08:13:22;;;;;;;41.47;29.75;;;;;;;14.09;36.17;96121.81;5108810;28;20559;-74
2023/12/28 08:15:47;;;;;;;41.58;30.63;;;;;;;14.79;35.22;96122.47;5107558;28;20062;-74
2023/12/28 08:18:13;;;;;;;44.45;33.05;;;;;;;15.71;33.70;96121.91;5109119;28;20750;-75
2023/12/28 08:20:38;;;;;;;41.80;27.20;;;;;;;16.30;32.55;96117.69;5109592;28;20413;-75
2023/12/28 08:23:04;;;;;;;40.33;30.27;;;;;;;16.95;31.36;96121.88;5109247;28;20024;-74
2023/12/28 08:25:29;;;;;;;45.88;35.53;;;;;;;17.53;29.85;96127.72;5106772;28;20665;-75
2023/12/28 08:27:55;;;;;;;54.13;36.60;;;;;;;18.09;29.30;96114.91;5108831;28;20501;-75
2023/12/28 08:30:21;;;;;;;50.67;38.05;;;;;;;18.52;28.45;96113.16;5107137;28;20110;-75
2023/12/28 08:32:46;;;;;;;50.88;38.80;;;;;;;18.93;27.89;96114.66;5107825;28;20031;-76
2023/12/28 08:35:12;;;;;;;52.08;38.80;;;;;;;19.62;26.87;96127.19;5108917;28;20034;-75
2023/12/28 08:37:37;;;;;;;51.38;39.65;;;;;;;20.09;26.48;96117.44;5109473;28;20480;-74
2023/12/28 08:40:03;;;;;;;48.03;37.88;;;;;;;20.56;25.48;96107.59;5108609;28;20077;-76
2023/12/28 08:42:29;;;;;;;45.75;36.50;;;;;;;21.09;24.96;96112.50;5107046;28;20019;-77
2023/12/28 08:44:54;;;;;;;48.72;37.97;;;;;;;21.47;24.71;96106.91;5109333;28;20076;-75
2023/12/28 08:47:20;;;;;;;47.50;34.92;;;;;;;22.00;23.86;96119.28;5108683;28;20103;-76
2023/12/28 08:49:45;;;;;;;45.28;34.35;;;;;;;22.18;23.65;96115.50;5108746;27;20532;-75
2023/12/28 08:52:11;;;;;;;42.22;34.58;;;;;;;22.65;23.10;96105.22;5108162;28;20103;-76
2023/12/28 08:54:36;;;;;;;42.95;34.33;;;;;;;23.07;22.82;96096.38;5109052;28;20020;-80
2023/12/28 08:57:01;;;;;;;46.53;35.05;;;;;;;23.42;22.40;96089.88;5108011;28;20455;-82
2023/12/28 08:59:27;;;;;;;43.70;33.50;;;;;;;23.82;21.77;96092.59;5108537;28;20103;-75
2023/12/28 09:01:55;;;;;;;40.85;32.22;;;;;;;24.20;21.54;96096.22;5107989;28;20470;-75
2023/12/28 09:04:20;;;;;;;39.55;31.25;;;;;;;24.44;20.94;96095.91;5107907;28;20024;-76
2023/12/28 09:06:46;;;;;;;41.35;33.25;;;;;;;24.64;20.86;96098.56;5108476;27;20497;-78
2023/12/28 09:09:12;;;;;;;38.20;31.30;;;;;;;25.08;20.50;96094.47;5106486;28;20027;-77
2023/12/28 09:11:37;;;;;;;38.88;32.33;;;;;;;25.09;20.26;96079.13;5108822;28;20023;-76
2023/12/28 09:14:03;;;;;;;41.22;32.58;;;;;;;25.50;20.01;96075.13;5107383;28;20071;-76
2023/12/28 09:16:28;;;;;;;42.72;30.67;;;;;;;25.94;19.58;96077.25;5108480;28;20020;-76
2023/12/28 09:18:53;;;;;;;38.53;29.75;;;;;;;26.29;19.06;96073.91;5107875;28;20023;-78
2023/12/28 09:21:19;;;;;;;36.05;28.70;;;;;;;26.45;19.22;96072.38;5107674;28;20023;-76
2023/12/28 09:23:44;;;;;;;35.63;28.35;;;;;;;26.60;18.90;96066.44;5108206;28;20030;-77
2023/12/28 09:26:10;;;;;;;35.33;29.90;;;;;;;26.97;18.57;96064.00;5107254;28;20086;-78
2023/12/28 09:28:35;;;;;;;33.90;28.52;;;;;;;27.17;18.26;96057.28;5108055;28;20468;-78
2023/12/28 09:31:02;;;;;;;32.53;28.45;;;;;;;27.44;18.10;96055.59;5107536;28;20038;-79
2023/12/28 09:33:27;;;;;;;32.80;28.17;;;;;;;27.54;17.88;96050.41;5108313;28;20024;-80
2023/12/28 09:35:53;;;;;;;34.47;26.83;;;;;;;27.95;17.46;96043.97;5107898;28;20028;-81
2023/12/28 09:38:19;;;;;;;33.22;27.70;;;;;;;28.29;17.46;96044.41;5111017;28;20031;-79
2023/12/28 09:40:44;;;;;;;27.65;24.65;;;;;;;28.25;17.24;96030.56;5111921;28;20107;-78
2023/12/28 09:43:19;;;;;;;33.03;26.63;;;;;;;28.70;16.91;96027.28;5112678;28;20127;-79
2023/12/28 09:45:51;;;;;;;32.80;26.33;;;;;;;28.68;17.17;96029.13;5106947;28;20442;-81
2023/12/28 09:48:17;;;;;;;30.65;24.60;;;;;;;28.77;16.90;96031.59;5108874;28;20500;-78
2023/12/28 09:50:45;;;;;;;30.20;24.15;;;;;;;29.30;16.44;96023.47;5114736;28;20446;-82
2023/12/28 09:53:10;;;;;;;34.75;25.25;;;;;;;29.18;16.38;96020.03;5106870;28;20433;-79
2023/12/28 09:55:35;;;;;;;26.92;23.33;;;;;;;29.26;16.50;96018.13;5105924;28;20440;-79
2023/12/28 09:58:02;;;;;;;29.98;24.95;;;;;;;29.80;16.00;96008.56;5107089;27;20148;-79
2023/12/28 10:00:28;;;;;;;30.00;24.65;;;;;;;29.70;16.24;95998.94;5105549;28;20032;-79
2023/12/28 10:02:53;;;;;;;27.58;22.67;;;;;;;29.76;16.16;95999.63;5107346;28;20028;-79
2023/12/28 10:05:19;;;;;;;26.05;23.23;;;;;;;29.83;16.26;96001.84;5106773;28;20158;-79
2023/12/28 10:07:45;;;;;;;29.67;22.88;;;;;;;30.13;16.08;95992.34;5106134;28;20030;-77
2023/12/28 10:10:11;;;;;;;28.35;23.98;;;;;;;30.16;15.71;95991.22;5105090;28;20468;-79
2023/12/28 10:12:37;;;;;;;24.83;21.67;;;;;;;30.18;15.57;95982.22;5107247;28;20536;-80
2023/12/28 10:15:04;;;;;;;28.63;22.58;;;;;;;29.99;16.00;95987.91;5106253;28;20044;-80
2023/12/28 10:17:29;;;;;;;28.85;22.65;;;;;;;29.76;16.28;95981.84;5106964;28;20023;-80
2023/12/28 10:20:02;;;;;;;27.23;21.70;;;;;;;29.93;15.84;95975.91;5107725;28;20032;-82
2023/12/28 10:22:27;;;;;;;27.60;23.35;;;;;;;29.75;16.01;95966.91;5107951;28;20039;-80
2023/12/28 10:24:52;;;;;;;25.05;22.35;;;;;;;29.66;16.01;95961.69;5106698;28;20032;-80
2023/12/28 10:27:18;;;;;;;29.30;22.48;;;;;;;29.46;16.26;95953.72;5106312;28;20024;-79
2023/12/28 10:29:43;;;;;;;25.92;22.05;;;;;;;29.17;16.62;95939.22;5107321;28;20059;-80
2023/12/28 10:32:09;;;;;;;31.15;24.50;;;;;;;29.30;16.77;95935.69;5106492;28;20027;-81
2023/12/28 10:34:34;;;;;;;31.30;25.35;;;;;;;29.31;16.42;95931.56;5106861;28;20024;-79
2023/12/28 10:36:59;;;;;;;30.02;25.05;;;;;;;29.05;16.71;95927.31;5105030;28;20106;-78
2023/12/28 10:39:25;;;;;;;30.90;25.95;;;;;;;28.99;16.63;95914.53;5104926;28;20035;-80
2023/12/28 10:41:54;;;;;;;30.90;26.00;;;;;;;29.11;16.45;95921.56;5106429;28;20024;-80
2023/12/28 10:44:23;;;;;;;33.78;25.48;;;;;;;28.99;16.48;95904.00;5106126;28;20016;-78
2023/12/28 10:46:51;;;;;;;31.95;24.85;;;;;;;29.04;16.67;95905.22;5106738;28;20414;-78
2023/12/28 10:49:17;;;;;;;31.65;24.60;;;;;;;29.18;16.46;95903.94;5105754;28;20020;-79
2023/12/28 10:51:43;;;;;;;32.20;24.58;;;;;;;28.98;16.59;95908.13;5106659;28;20057;-79
2023/12/28 10:54:16;;;;;;;32.80;25.00;;;;;;;29.04;16.72;95897.47;5106313;28;20432;-79
2023/12/28 10:56:46;;;;;;;28.65;24.10;;;;;;;29.29;16.31;95898.13;5105993;28;20099;-75
2023/12/28 10:59:39;;;;;;;30.08;23.42;;;;;;;30.35;15.56;95901.16;5104887;28;20031;-76
2023/12/28 11:02:06;;;;;;;30.55;23.25;;;;;;;31.33;14.95;95890.81;5104357;28;20104;-77
2023/12/28 11:04:38;;;;;;;29.98;23.00;;;;;;;32.05;14.26;95882.50;5106452;28;20606;-81
2023/12/28 11:07:05;;;;;;;34.58;24.52;;;;;;;32.83;13.16;95881.59;5105147;28;20156;-86
2023/12/28 11:09:31;;;;;;;30.33;24.05;;;;;;;32.92;13.07;95876.16;5104527;28;20027;-81
2023/12/28 11:12:00;;;;;;;31.48;24.75;;;;;;;33.46;12.99;95874.19;5106147;28;20024;-78
2023/12/28 11:14:27;;;;;;;30.85;23.50;;;;;;;34.21;12.21;95868.28;5103845;28;20046;-78
2023/12/28 11:16:53;;;;;;;29.33;24.17;;;;;;;34.62;12.05;95872.00;5105984;28;20418;-80